EWG5AB EDDH-LDSP
Flight info
| Callsign | EWG5AB |
|---|---|
| Flight time | 1h 50m |
| Altitude | 37000 |
| Route | AMLUH2C AMLUH M852 DENIX DCT ZUCKA DCT LASTO DCT RODIS DCT KUMOM DCT MALUG DCT RISOM DCT OSLOP DCT PUL DCT MINTU DCT SAL SAL1Z |
| Aircraft | A320/M-SDE3FGHIRWY/LB1 |
Departure
| Time | 2026-05-06 11:25 |
|---|---|
| Airport | Hamburg Helmut Schmidt Airport (EDDH) |
Arrival
| Time | 2026-05-06 13:16 |
|---|---|
| Airport | Split Saint Jerome Airport (LDSP) |
| Time | Latitude | Longitude | Altitude | Speed | Heading |
|---|---|---|---|---|---|
| 2026-05-06 10:48 | 53.63112 | 10.00381 | 47 ft | 0 kts | 87° |
| 2026-05-06 11:15 | 53.63112 | 10.00377 | 48 ft | 2 kts | 87° |
| 2026-05-06 11:15 | 53.63111 | 10.00334 | 43 ft | 4 kts | 87° |
| 2026-05-06 11:15 | 53.63109 | 10.00288 | 44 ft | 4 kts | 87° |
| 2026-05-06 11:16 | 53.63108 | 10.00252 | 44 ft | 4 kts | 91° |
| 2026-05-06 11:16 | 53.63112 | 10.00210 | 45 ft | 4 kts | 123° |
| 2026-05-06 11:16 | 53.63127 | 10.00190 | 45 ft | 1 kts | 175° |
| 2026-05-06 11:18 | 53.63122 | 10.00191 | 44 ft | 3 kts | 175° |
| 2026-05-06 11:19 | 53.63103 | 10.00193 | 45 ft | 2 kts | 175° |
| 2026-05-06 11:19 | 53.63076 | 10.00188 | 48 ft | 6 kts | 197° |
| 2026-05-06 11:19 | 53.63027 | 10.00139 | 48 ft | 9 kts | 212° |
| 2026-05-06 11:19 | 53.62980 | 10.00088 | 48 ft | 7 kts | 213° |
| 2026-05-06 11:20 | 53.62940 | 10.00042 | 48 ft | 8 kts | 215° |
| 2026-05-06 11:20 | 53.62877 | 10.00034 | 48 ft | 11 kts | 196° |
| 2026-05-06 11:20 | 53.62801 | 9.99958 | 47 ft | 14 kts | 208° |
| 2026-05-06 11:20 | 53.62709 | 9.99873 | 45 ft | 16 kts | 208° |
| 2026-05-06 11:21 | 53.62639 | 9.99759 | 47 ft | 13 kts | 253° |
| 2026-05-06 11:21 | 53.62622 | 9.99618 | 43 ft | 11 kts | 259° |
| 2026-05-06 11:21 | 53.62603 | 9.99452 | 45 ft | 19 kts | 259° |
| 2026-05-06 11:21 | 53.62574 | 9.99192 | 47 ft | 26 kts | 258° |
| 2026-05-06 11:22 | 53.62538 | 9.98872 | 47 ft | 29 kts | 259° |
| 2026-05-06 11:22 | 53.62500 | 9.98542 | 47 ft | 29 kts | 259° |
| 2026-05-06 11:22 | 53.62460 | 9.98218 | 44 ft | 28 kts | 252° |
| 2026-05-06 11:22 | 53.62356 | 9.97942 | 47 ft | 29 kts | 230° |
| 2026-05-06 11:23 | 53.62227 | 9.97679 | 47 ft | 30 kts | 230° |
| 2026-05-06 11:23 | 53.62094 | 9.97409 | 47 ft | 30 kts | 230° |
| 2026-05-06 11:23 | 53.61957 | 9.97132 | 47 ft | 31 kts | 230° |
| 2026-05-06 11:23 | 53.61818 | 9.96850 | 47 ft | 31 kts | 230° |
| 2026-05-06 11:24 | 53.61694 | 9.96601 | 47 ft | 23 kts | 230° |
| 2026-05-06 11:24 | 53.61713 | 9.96418 | 47 ft | 17 kts | 338° |
| 2026-05-06 11:24 | 53.61835 | 9.96431 | 45 ft | 19 kts | 12° |
| 2026-05-06 11:24 | 53.61925 | 9.96571 | 44 ft | 22 kts | 50° |
| 2026-05-06 11:25 | 53.62165 | 9.97057 | 40 ft | 88 kts | 50° |
| 2026-05-06 11:25 | 53.62679 | 9.98098 | 42 ft | 141 kts | 50° |
| 2026-05-06 11:25 | 53.63382 | 9.99522 | 325 ft | 161 kts | 50° |
| 2026-05-06 11:25 | 53.64078 | 10.00939 | 1152 ft | 153 kts | 51° |
| 2026-05-06 11:26 | 53.64752 | 10.02352 | 1725 ft | 162 kts | 52° |
| 2026-05-06 11:26 | 53.65487 | 10.03916 | 2119 ft | 177 kts | 53° |
| 2026-05-06 11:26 | 53.66283 | 10.05606 | 2511 ft | 190 kts | 52° |
| 2026-05-06 11:26 | 53.67145 | 10.07378 | 3006 ft | 199 kts | 52° |
| 2026-05-06 11:27 | 53.68031 | 10.09143 | 3884 ft | 198 kts | 52° |
| 2026-05-06 11:27 | 53.68938 | 10.10947 | 4627 ft | 205 kts | 51° |
| 2026-05-06 11:27 | 53.69859 | 10.12858 | 4932 ft | 211 kts | 59° |
| 2026-05-06 11:27 | 53.70349 | 10.15151 | 4994 ft | 209 kts | 85° |
| 2026-05-06 11:28 | 53.70166 | 10.17596 | 5123 ft | 222 kts | 111° |
| 2026-05-06 11:28 | 53.69176 | 10.19783 | 5617 ft | 253 kts | 143° |
| 2026-05-06 11:28 | 53.67469 | 10.20879 | 6422 ft | 271 kts | 164° |
| 2026-05-06 11:28 | 53.65601 | 10.21589 | 7266 ft | 279 kts | 165° |
| 2026-05-06 11:29 | 53.63683 | 10.22246 | 8114 ft | 283 kts | 168° |
| 2026-05-06 11:29 | 53.61734 | 10.22873 | 8997 ft | 286 kts | 168° |
| 2026-05-06 11:29 | 53.59803 | 10.23478 | 9886 ft | 286 kts | 169° |
| 2026-05-06 11:29 | 53.57838 | 10.24079 | 10651 ft | 291 kts | 169° |
| 2026-05-06 11:30 | 53.55762 | 10.24762 | 10968 ft | 311 kts | 168° |
| 2026-05-06 11:30 | 53.53608 | 10.25558 | 11194 ft | 331 kts | 165° |
| 2026-05-06 11:30 | 53.51304 | 10.26478 | 11460 ft | 348 kts | 164° |
| 2026-05-06 11:30 | 53.48917 | 10.27439 | 12005 ft | 355 kts | 165° |
| 2026-05-06 11:31 | 53.46502 | 10.28364 | 12766 ft | 357 kts | 166° |
| 2026-05-06 11:31 | 53.44076 | 10.29240 | 13566 ft | 359 kts | 167° |
| 2026-05-06 11:31 | 53.41615 | 10.30102 | 14191 ft | 363 kts | 167° |
| 2026-05-06 11:31 | 53.39136 | 10.30966 | 14933 ft | 363 kts | 168° |
| 2026-05-06 11:32 | 53.36648 | 10.31836 | 15580 ft | 368 kts | 168° |
| 2026-05-06 11:32 | 53.34134 | 10.32720 | 16211 ft | 372 kts | 168° |
| 2026-05-06 11:32 | 53.31592 | 10.33615 | 16830 ft | 374 kts | 169° |
| 2026-05-06 11:32 | 53.29036 | 10.34517 | 17394 ft | 376 kts | 169° |
| 2026-05-06 11:33 | 53.26464 | 10.35426 | 17946 ft | 379 kts | 169° |
| 2026-05-06 11:33 | 53.23905 | 10.36329 | 18438 ft | 382 kts | 169° |
| 2026-05-06 11:33 | 53.21301 | 10.37249 | 18895 ft | 385 kts | 169° |
| 2026-05-06 11:33 | 53.18634 | 10.38190 | 19358 ft | 388 kts | 169° |
| 2026-05-06 11:34 | 53.16020 | 10.39113 | 19805 ft | 391 kts | 169° |
| 2026-05-06 11:34 | 53.13352 | 10.40055 | 20254 ft | 393 kts | 169° |
| 2026-05-06 11:34 | 53.10659 | 10.41001 | 20695 ft | 396 kts | 169° |
| 2026-05-06 11:34 | 53.07954 | 10.41953 | 21134 ft | 399 kts | 169° |
| 2026-05-06 11:35 | 53.05228 | 10.42911 | 21564 ft | 402 kts | 169° |
| 2026-05-06 11:35 | 53.02475 | 10.43877 | 22008 ft | 405 kts | 169° |
| 2026-05-06 11:35 | 52.99709 | 10.44840 | 22425 ft | 408 kts | 169° |
| 2026-05-06 11:35 | 52.96921 | 10.45810 | 22862 ft | 410 kts | 169° |
| 2026-05-06 11:36 | 52.94116 | 10.46785 | 23262 ft | 414 kts | 169° |
| 2026-05-06 11:36 | 52.93518 | 10.46994 | 23351 ft | 414 kts | 169° |
| 2026-05-06 11:36 | 52.91432 | 10.47723 | 23615 ft | 416 kts | 169° |
| 2026-05-06 11:36 | 52.88596 | 10.48711 | 23969 ft | 417 kts | 169° |
| 2026-05-06 11:37 | 52.85749 | 10.49697 | 24345 ft | 419 kts | 169° |
| 2026-05-06 11:37 | 52.82886 | 10.50688 | 24674 ft | 421 kts | 169° |
| 2026-05-06 11:37 | 52.80013 | 10.51683 | 25043 ft | 422 kts | 169° |
| 2026-05-06 11:37 | 52.77129 | 10.52681 | 25364 ft | 425 kts | 168° |
| 2026-05-06 11:38 | 52.74262 | 10.53672 | 25646 ft | 428 kts | 168° |
| 2026-05-06 11:38 | 52.71343 | 10.54679 | 26032 ft | 429 kts | 168° |
| 2026-05-06 11:38 | 52.68416 | 10.55687 | 26439 ft | 430 kts | 168° |
| 2026-05-06 11:38 | 52.65474 | 10.56699 | 26736 ft | 433 kts | 168° |
| 2026-05-06 11:39 | 52.62521 | 10.57713 | 27082 ft | 433 kts | 168° |
| 2026-05-06 11:39 | 52.59563 | 10.58729 | 27378 ft | 435 kts | 168° |
| 2026-05-06 11:39 | 52.56588 | 10.59747 | 27654 ft | 437 kts | 168° |
| 2026-05-06 11:39 | 52.53601 | 10.60769 | 27935 ft | 439 kts | 168° |
| 2026-05-06 11:40 | 52.50612 | 10.61791 | 28264 ft | 440 kts | 167° |
| 2026-05-06 11:40 | 52.47611 | 10.62817 | 28569 ft | 441 kts | 167° |
| 2026-05-06 11:40 | 52.44598 | 10.63843 | 28868 ft | 443 kts | 167° |
| 2026-05-06 11:40 | 52.41581 | 10.64865 | 29287 ft | 441 kts | 167° |
| 2026-05-06 11:41 | 52.38579 | 10.65881 | 29719 ft | 440 kts | 167° |
| 2026-05-06 11:41 | 52.35586 | 10.66897 | 30084 ft | 439 kts | 167° |
| 2026-05-06 11:41 | 52.32596 | 10.67914 | 30411 ft | 438 kts | 167° |
| 2026-05-06 11:41 | 52.29611 | 10.68927 | 30736 ft | 437 kts | 167° |
| 2026-05-06 11:42 | 52.26637 | 10.69931 | 31081 ft | 436 kts | 169° |
| 2026-05-06 11:42 | 52.23662 | 10.70932 | 31404 ft | 435 kts | 169° |
| 2026-05-06 11:42 | 52.20699 | 10.71929 | 31729 ft | 435 kts | 169° |
| 2026-05-06 11:42 | 52.17732 | 10.72928 | 32060 ft | 434 kts | 169° |
| 2026-05-06 11:43 | 52.14818 | 10.73910 | 32378 ft | 433 kts | 170° |
| 2026-05-06 11:43 | 52.11867 | 10.74899 | 32685 ft | 433 kts | 170° |
| 2026-05-06 11:43 | 52.08919 | 10.75884 | 33015 ft | 432 kts | 170° |
| 2026-05-06 11:44 | 52.03038 | 10.77844 | 33648 ft | 431 kts | 171° |
| 2026-05-06 11:44 | 52.00102 | 10.78825 | 33955 ft | 430 kts | 171° |
| 2026-05-06 11:44 | 51.97169 | 10.79802 | 34207 ft | 430 kts | 171° |
| 2026-05-06 11:44 | 51.94237 | 10.80777 | 34443 ft | 430 kts | 172° |
| 2026-05-06 11:45 | 51.91307 | 10.81748 | 34692 ft | 429 kts | 172° |
| 2026-05-06 11:45 | 51.88382 | 10.82719 | 34920 ft | 430 kts | 172° |
| 2026-05-06 11:45 | 51.85454 | 10.83696 | 35134 ft | 430 kts | 172° |
| 2026-05-06 11:45 | 51.82521 | 10.84669 | 35345 ft | 430 kts | 172° |
| 2026-05-06 11:46 | 51.79849 | 10.85551 | 35532 ft | 430 kts | 172° |
| 2026-05-06 11:46 | 51.78409 | 10.86026 | 35635 ft | 430 kts | 172° |
| 2026-05-06 11:46 | 51.75477 | 10.86990 | 35849 ft | 430 kts | 172° |
| 2026-05-06 11:46 | 51.74174 | 10.87418 | 35949 ft | 430 kts | 172° |
| 2026-05-06 11:47 | 51.71242 | 10.88382 | 36153 ft | 430 kts | 172° |
| 2026-05-06 11:47 | 51.68311 | 10.89347 | 36351 ft | 430 kts | 172° |
| 2026-05-06 11:47 | 51.65384 | 10.90344 | 36530 ft | 431 kts | 171° |
| 2026-05-06 11:47 | 51.62461 | 10.91449 | 36719 ft | 431 kts | 169° |
| 2026-05-06 11:48 | 51.56650 | 10.93822 | 36783 ft | 435 kts | 169° |
| 2026-05-06 11:48 | 51.50786 | 10.96228 | 36780 ft | 435 kts | 169° |
| 2026-05-06 11:49 | 51.44921 | 10.98561 | 36778 ft | 434 kts | 169° |
| 2026-05-06 11:49 | 51.39049 | 11.00860 | 36775 ft | 434 kts | 169° |
| 2026-05-06 11:50 | 51.33182 | 11.03146 | 36774 ft | 434 kts | 169° |
| 2026-05-06 11:50 | 51.27311 | 11.05452 | 36747 ft | 434 kts | 169° |
| 2026-05-06 11:51 | 51.21438 | 11.07739 | 36767 ft | 434 kts | 170° |
| 2026-05-06 11:51 | 51.15562 | 11.10022 | 36775 ft | 434 kts | 170° |
| 2026-05-06 11:52 | 51.09714 | 11.12491 | 36779 ft | 436 kts | 166° |
| 2026-05-06 11:52 | 51.03951 | 11.15562 | 36769 ft | 437 kts | 164° |
| 2026-05-06 11:53 | 50.98214 | 11.18752 | 36771 ft | 437 kts | 165° |
| 2026-05-06 11:53 | 50.93423 | 11.21314 | 36770 ft | 436 kts | 166° |
| 2026-05-06 11:54 | 50.87650 | 11.24300 | 36773 ft | 437 kts | 166° |
| 2026-05-06 11:54 | 50.81872 | 11.27275 | 36767 ft | 437 kts | 166° |
| 2026-05-06 11:55 | 50.76097 | 11.30271 | 36754 ft | 436 kts | 166° |
| 2026-05-06 11:55 | 50.70378 | 11.33237 | 36799 ft | 434 kts | 166° |
| 2026-05-06 11:56 | 50.64643 | 11.36184 | 36801 ft | 432 kts | 166° |
| 2026-05-06 11:56 | 50.58937 | 11.39095 | 36803 ft | 431 kts | 166° |
| 2026-05-06 11:57 | 50.53240 | 11.42023 | 36795 ft | 431 kts | 166° |
| 2026-05-06 11:57 | 50.47544 | 11.44954 | 36805 ft | 430 kts | 166° |
| 2026-05-06 11:58 | 50.41847 | 11.47861 | 36808 ft | 430 kts | 166° |
| 2026-05-06 11:58 | 50.36146 | 11.50757 | 36803 ft | 430 kts | 166° |
| 2026-05-06 11:59 | 50.30458 | 11.53642 | 36811 ft | 429 kts | 166° |
| 2026-05-06 11:59 | 50.24773 | 11.56521 | 36790 ft | 429 kts | 166° |
| 2026-05-06 12:00 | 50.19127 | 11.59374 | 36793 ft | 429 kts | 167° |
| 2026-05-06 12:00 | 50.13425 | 11.62254 | 36795 ft | 430 kts | 167° |
| 2026-05-06 12:01 | 50.07729 | 11.65108 | 36800 ft | 430 kts | 167° |
| 2026-05-06 12:01 | 50.02024 | 11.67966 | 36784 ft | 431 kts | 166° |
| 2026-05-06 12:02 | 49.96313 | 11.70827 | 36784 ft | 431 kts | 166° |
| 2026-05-06 12:02 | 49.90634 | 11.73658 | 36787 ft | 432 kts | 166° |
| 2026-05-06 12:03 | 49.84912 | 11.76508 | 36792 ft | 432 kts | 167° |
| 2026-05-06 12:03 | 49.79184 | 11.79345 | 36792 ft | 433 kts | 167° |
| 2026-05-06 12:04 | 49.73442 | 11.82184 | 36770 ft | 433 kts | 167° |
| 2026-05-06 12:04 | 49.67697 | 11.85031 | 36787 ft | 434 kts | 167° |
| 2026-05-06 12:05 | 49.61945 | 11.87873 | 36800 ft | 433 kts | 167° |
| 2026-05-06 12:05 | 49.56201 | 11.90698 | 36801 ft | 433 kts | 167° |
| 2026-05-06 12:06 | 49.50472 | 11.93508 | 36818 ft | 431 kts | 167° |
| 2026-05-06 12:06 | 49.44687 | 11.95619 | 36815 ft | 424 kts | 176° |
| 2026-05-06 12:07 | 49.38846 | 11.96940 | 36821 ft | 424 kts | 176° |
| 2026-05-06 12:07 | 49.33016 | 11.98267 | 36823 ft | 423 kts | 176° |
| 2026-05-06 12:08 | 49.27237 | 11.99586 | 36825 ft | 422 kts | 176° |
| 2026-05-06 12:08 | 49.21433 | 12.00902 | 36822 ft | 421 kts | 176° |
| 2026-05-06 12:09 | 49.15634 | 12.02205 | 36794 ft | 421 kts | 176° |
| 2026-05-06 12:09 | 49.09850 | 12.03512 | 36806 ft | 420 kts | 176° |
| 2026-05-06 12:10 | 49.04077 | 12.04810 | 36824 ft | 418 kts | 176° |
| 2026-05-06 12:10 | 48.98319 | 12.06097 | 36826 ft | 418 kts | 176° |
| 2026-05-06 12:11 | 48.92574 | 12.07385 | 36821 ft | 417 kts | 176° |
| 2026-05-06 12:11 | 48.86868 | 12.08668 | 36814 ft | 417 kts | 176° |
| 2026-05-06 12:12 | 48.81135 | 12.09938 | 36819 ft | 416 kts | 176° |
| 2026-05-06 12:12 | 48.75407 | 12.11210 | 36815 ft | 416 kts | 176° |
| 2026-05-06 12:13 | 48.69682 | 12.12486 | 36808 ft | 416 kts | 176° |
| 2026-05-06 12:13 | 48.63957 | 12.13757 | 36787 ft | 416 kts | 176° |
| 2026-05-06 12:14 | 48.58228 | 12.15025 | 36787 ft | 416 kts | 176° |
| 2026-05-06 12:14 | 48.52528 | 12.16277 | 36787 ft | 416 kts | 176° |
| 2026-05-06 12:15 | 48.46790 | 12.17533 | 36762 ft | 417 kts | 177° |
| 2026-05-06 12:15 | 48.41048 | 12.18797 | 36767 ft | 417 kts | 176° |
| 2026-05-06 12:16 | 48.35303 | 12.20056 | 36772 ft | 418 kts | 177° |
| 2026-05-06 12:16 | 48.29547 | 12.21313 | 36778 ft | 418 kts | 177° |
| 2026-05-06 12:17 | 48.23789 | 12.22566 | 36785 ft | 418 kts | 177° |
| 2026-05-06 12:17 | 48.18030 | 12.23818 | 36784 ft | 418 kts | 177° |
| 2026-05-06 12:18 | 48.12302 | 12.25061 | 36784 ft | 418 kts | 177° |
| 2026-05-06 12:18 | 48.06543 | 12.26300 | 36779 ft | 418 kts | 177° |
| 2026-05-06 12:19 | 48.00780 | 12.27543 | 36784 ft | 418 kts | 177° |
| 2026-05-06 12:19 | 47.95021 | 12.28793 | 36785 ft | 418 kts | 177° |
| 2026-05-06 12:20 | 47.89275 | 12.30029 | 36790 ft | 417 kts | 177° |
| 2026-05-06 12:20 | 47.83545 | 12.31254 | 36791 ft | 416 kts | 177° |
| 2026-05-06 12:21 | 47.77816 | 12.32477 | 36786 ft | 416 kts | 177° |
| 2026-05-06 12:21 | 47.72093 | 12.33704 | 36781 ft | 414 kts | 176° |
| 2026-05-06 12:22 | 47.66393 | 12.34920 | 36795 ft | 414 kts | 177° |
| 2026-05-06 12:22 | 47.60698 | 12.36133 | 36789 ft | 413 kts | 177° |
| 2026-05-06 12:23 | 47.55015 | 12.37337 | 36767 ft | 413 kts | 177° |
| 2026-05-06 12:23 | 47.49343 | 12.38773 | 36776 ft | 413 kts | 175° |
| 2026-05-06 12:24 | 47.43691 | 12.40380 | 36786 ft | 414 kts | 175° |
| 2026-05-06 12:24 | 47.38035 | 12.41955 | 36784 ft | 413 kts | 175° |
| 2026-05-06 12:25 | 47.32415 | 12.43462 | 36772 ft | 413 kts | 175° |
| 2026-05-06 12:25 | 47.26760 | 12.44954 | 36793 ft | 413 kts | 175° |
| 2026-05-06 12:26 | 47.21084 | 12.46448 | 36798 ft | 414 kts | 175° |
| 2026-05-06 12:26 | 47.15414 | 12.47950 | 36799 ft | 413 kts | 176° |
| 2026-05-06 12:27 | 47.09750 | 12.49458 | 36809 ft | 414 kts | 175° |
| 2026-05-06 12:27 | 47.04043 | 12.50976 | 36804 ft | 418 kts | 175° |
| 2026-05-06 12:28 | 46.98287 | 12.52492 | 36853 ft | 422 kts | 175° |
| 2026-05-06 12:28 | 46.92493 | 12.54015 | 36878 ft | 422 kts | 175° |
| 2026-05-06 12:29 | 46.86716 | 12.55533 | 36888 ft | 421 kts | 175° |
| 2026-05-06 12:29 | 46.80991 | 12.57033 | 36903 ft | 421 kts | 175° |
| 2026-05-06 12:30 | 46.75223 | 12.58538 | 36906 ft | 421 kts | 175° |
| 2026-05-06 12:30 | 46.69482 | 12.60400 | 36917 ft | 429 kts | 166° |
| 2026-05-06 12:31 | 46.63904 | 12.63609 | 36906 ft | 431 kts | 165° |
| 2026-05-06 12:31 | 46.58335 | 12.66822 | 36879 ft | 431 kts | 165° |
| 2026-05-06 12:32 | 46.52748 | 12.70017 | 36897 ft | 432 kts | 165° |
| 2026-05-06 12:32 | 46.47153 | 12.73216 | 36901 ft | 432 kts | 165° |
| 2026-05-06 12:33 | 46.41565 | 12.76408 | 36909 ft | 432 kts | 165° |
| 2026-05-06 12:33 | 46.35978 | 12.79581 | 36935 ft | 431 kts | 165° |
| 2026-05-06 12:34 | 46.30388 | 12.82758 | 36935 ft | 431 kts | 165° |
| 2026-05-06 12:34 | 46.24807 | 12.85922 | 36935 ft | 431 kts | 165° |
| 2026-05-06 12:35 | 46.19260 | 12.89062 | 36916 ft | 430 kts | 165° |
| 2026-05-06 12:35 | 46.13689 | 12.92213 | 36930 ft | 430 kts | 165° |
| 2026-05-06 12:36 | 46.08121 | 12.95345 | 36934 ft | 430 kts | 165° |
| 2026-05-06 12:36 | 46.02535 | 12.98371 | 36939 ft | 428 kts | 167° |
| 2026-05-06 12:37 | 45.96912 | 13.01174 | 36921 ft | 427 kts | 167° |
| 2026-05-06 12:37 | 45.91294 | 13.03951 | 36919 ft | 427 kts | 167° |
| 2026-05-06 12:38 | 45.85682 | 13.06780 | 36919 ft | 427 kts | 167° |
| 2026-05-06 12:38 | 45.80082 | 13.09622 | 36891 ft | 427 kts | 167° |
| 2026-05-06 12:39 | 45.74517 | 13.12429 | 36907 ft | 427 kts | 167° |
| 2026-05-06 12:39 | 45.68878 | 13.15261 | 36917 ft | 427 kts | 167° |
| 2026-05-06 12:40 | 45.63356 | 13.18490 | 36922 ft | 436 kts | 156° |
| 2026-05-06 12:40 | 45.58337 | 13.23405 | 36922 ft | 440 kts | 151° |
| 2026-05-06 12:41 | 45.53337 | 13.28447 | 36929 ft | 440 kts | 151° |
| 2026-05-06 12:41 | 45.48329 | 13.33476 | 36914 ft | 440 kts | 151° |
| 2026-05-06 12:42 | 45.43318 | 13.38473 | 36929 ft | 440 kts | 151° |
| 2026-05-06 12:42 | 45.38301 | 13.43462 | 36941 ft | 440 kts | 151° |
| 2026-05-06 12:43 | 45.33292 | 13.48457 | 36948 ft | 439 kts | 151° |
| 2026-05-06 12:43 | 45.28288 | 13.53429 | 36951 ft | 439 kts | 151° |
| 2026-05-06 12:44 | 45.24133 | 13.57540 | 36956 ft | 438 kts | 151° |
| 2026-05-06 12:44 | 45.19133 | 13.62480 | 36934 ft | 438 kts | 151° |
| 2026-05-06 12:45 | 45.14136 | 13.67415 | 36943 ft | 437 kts | 151° |
| 2026-05-06 12:46 | 45.06648 | 13.74793 | 36958 ft | 436 kts | 151° |
| 2026-05-06 12:46 | 45.01657 | 13.79675 | 36969 ft | 435 kts | 152° |
| 2026-05-06 12:47 | 44.96706 | 13.84511 | 36980 ft | 436 kts | 152° |
| 2026-05-06 12:47 | 44.91720 | 13.89383 | 36942 ft | 435 kts | 151° |
| 2026-05-06 12:48 | 44.87050 | 13.94917 | 36949 ft | 444 kts | 141° |
| 2026-05-06 12:48 | 44.82712 | 14.01119 | 36954 ft | 445 kts | 141° |
| 2026-05-06 12:49 | 44.78350 | 14.07311 | 36951 ft | 445 kts | 141° |
| 2026-05-06 12:49 | 44.73981 | 14.13495 | 36961 ft | 445 kts | 141° |
| 2026-05-06 12:50 | 44.69642 | 14.19639 | 36941 ft | 446 kts | 141° |
| 2026-05-06 12:50 | 44.65270 | 14.25816 | 36956 ft | 446 kts | 141° |
| 2026-05-06 12:51 | 44.60885 | 14.31989 | 36966 ft | 445 kts | 141° |
| 2026-05-06 12:51 | 44.56510 | 14.38136 | 36972 ft | 445 kts | 141° |
| 2026-05-06 12:52 | 44.52123 | 14.44292 | 36696 ft | 446 kts | 141° |
| 2026-05-06 12:52 | 44.49936 | 14.47357 | 36425 ft | 446 kts | 141° |
| 2026-05-06 12:52 | 44.47739 | 14.50432 | 36169 ft | 446 kts | 141° |
| 2026-05-06 12:52 | 44.45547 | 14.53495 | 35912 ft | 446 kts | 141° |
| 2026-05-06 12:53 | 44.43353 | 14.56552 | 35659 ft | 445 kts | 141° |
| 2026-05-06 12:53 | 44.41156 | 14.59607 | 35407 ft | 445 kts | 141° |
| 2026-05-06 12:53 | 44.38957 | 14.62663 | 35158 ft | 445 kts | 141° |
| 2026-05-06 12:53 | 44.36751 | 14.65721 | 34459 ft | 449 kts | 141° |
| 2026-05-06 12:54 | 44.34523 | 14.68805 | 33515 ft | 453 kts | 141° |
| 2026-05-06 12:54 | 44.32265 | 14.71796 | 32562 ft | 455 kts | 143° |
| 2026-05-06 12:54 | 44.29884 | 14.74725 | 31607 ft | 457 kts | 145° |
| 2026-05-06 12:54 | 44.27441 | 14.77578 | 30633 ft | 460 kts | 146° |
| 2026-05-06 12:55 | 44.24946 | 14.80421 | 29443 ft | 466 kts | 146° |
| 2026-05-06 12:55 | 44.22442 | 14.83274 | 28326 ft | 463 kts | 145° |
| 2026-05-06 12:55 | 44.19973 | 14.86123 | 27390 ft | 458 kts | 145° |
| 2026-05-06 12:55 | 44.17555 | 14.88952 | 26773 ft | 451 kts | 144° |
| 2026-05-06 12:56 | 44.15171 | 14.91764 | 26047 ft | 447 kts | 144° |
| 2026-05-06 12:56 | 44.12808 | 14.94553 | 25349 ft | 443 kts | 144° |
| 2026-05-06 12:56 | 44.10467 | 14.97313 | 24658 ft | 440 kts | 144° |
| 2026-05-06 12:56 | 44.08136 | 15.00054 | 23999 ft | 436 kts | 144° |
| 2026-05-06 12:57 | 44.05825 | 15.02765 | 23284 ft | 433 kts | 144° |
| 2026-05-06 12:57 | 44.03531 | 15.05450 | 22614 ft | 428 kts | 144° |
| 2026-05-06 12:57 | 44.01269 | 15.08095 | 21997 ft | 422 kts | 143° |
| 2026-05-06 12:57 | 43.99035 | 15.10702 | 21407 ft | 417 kts | 143° |
| 2026-05-06 12:58 | 43.96821 | 15.13280 | 20820 ft | 412 kts | 143° |
| 2026-05-06 12:58 | 43.94667 | 15.15786 | 20277 ft | 408 kts | 143° |
| 2026-05-06 12:58 | 43.92510 | 15.18306 | 19733 ft | 404 kts | 143° |
| 2026-05-06 12:58 | 43.90392 | 15.20828 | 19215 ft | 400 kts | 143° |
| 2026-05-06 12:59 | 43.88299 | 15.23345 | 18709 ft | 396 kts | 142° |
| 2026-05-06 12:59 | 43.86232 | 15.25843 | 18224 ft | 391 kts | 142° |
| 2026-05-06 12:59 | 43.84191 | 15.28309 | 17704 ft | 387 kts | 142° |
| 2026-05-06 12:59 | 43.82166 | 15.30749 | 17214 ft | 384 kts | 142° |
| 2026-05-06 13:00 | 43.80152 | 15.33163 | 16734 ft | 381 kts | 143° |
| 2026-05-06 13:00 | 43.78156 | 15.35545 | 16239 ft | 378 kts | 143° |
| 2026-05-06 13:00 | 43.76170 | 15.37909 | 15744 ft | 375 kts | 143° |
| 2026-05-06 13:00 | 43.74194 | 15.40261 | 15229 ft | 374 kts | 143° |
| 2026-05-06 13:01 | 43.72226 | 15.42599 | 14711 ft | 373 kts | 143° |
| 2026-05-06 13:01 | 43.70262 | 15.44930 | 14170 ft | 372 kts | 143° |
| 2026-05-06 13:01 | 43.68297 | 15.47260 | 13612 ft | 372 kts | 143° |
| 2026-05-06 13:01 | 43.66339 | 15.49582 | 13022 ft | 370 kts | 143° |
| 2026-05-06 13:02 | 43.64415 | 15.51861 | 12463 ft | 368 kts | 143° |
| 2026-05-06 13:02 | 43.62483 | 15.54154 | 11894 ft | 365 kts | 142° |
| 2026-05-06 13:02 | 43.60559 | 15.56436 | 11303 ft | 363 kts | 142° |
| 2026-05-06 13:02 | 43.58648 | 15.58697 | 10788 ft | 359 kts | 143° |
| 2026-05-06 13:03 | 43.56793 | 15.60893 | 10651 ft | 344 kts | 142° |
| 2026-05-06 13:03 | 43.55019 | 15.62996 | 10532 ft | 329 kts | 142° |
| 2026-05-06 13:03 | 43.53315 | 15.65017 | 10399 ft | 316 kts | 144° |
| 2026-05-06 13:03 | 43.51679 | 15.66952 | 10276 ft | 304 kts | 144° |
| 2026-05-06 13:04 | 43.50099 | 15.68816 | 10140 ft | 294 kts | 144° |
| 2026-05-06 13:04 | 43.48557 | 15.70630 | 9890 ft | 289 kts | 143° |
| 2026-05-06 13:04 | 43.47041 | 15.72406 | 9652 ft | 284 kts | 144° |
| 2026-05-06 13:04 | 43.45537 | 15.74166 | 9361 ft | 284 kts | 143° |
| 2026-05-06 13:05 | 43.44036 | 15.75926 | 8992 ft | 283 kts | 143° |
| 2026-05-06 13:05 | 43.42542 | 15.77676 | 8599 ft | 281 kts | 145° |
| 2026-05-06 13:05 | 43.40866 | 15.78956 | 8223 ft | 273 kts | 168° |
| 2026-05-06 13:05 | 43.39010 | 15.79084 | 7868 ft | 265 kts | 194° |
| 2026-05-06 13:06 | 43.37346 | 15.78110 | 7675 ft | 261 kts | 216° |
| 2026-05-06 13:06 | 43.36023 | 15.76395 | 7457 ft | 259 kts | 225° |
| 2026-05-06 13:06 | 43.34766 | 15.74625 | 7240 ft | 260 kts | 225° |
| 2026-05-06 13:06 | 43.33475 | 15.72890 | 7023 ft | 258 kts | 217° |
| 2026-05-06 13:07 | 43.31885 | 15.71913 | 6814 ft | 258 kts | 190° |
| 2026-05-06 13:07 | 43.30081 | 15.72124 | 6598 ft | 268 kts | 162° |
| 2026-05-06 13:07 | 43.28485 | 15.73464 | 6418 ft | 274 kts | 137° |
| 2026-05-06 13:07 | 43.27433 | 15.75668 | 6356 ft | 283 kts | 113° |
| 2026-05-06 13:08 | 43.27198 | 15.78345 | 6294 ft | 287 kts | 84° |
| 2026-05-06 13:08 | 43.27791 | 15.80959 | 6240 ft | 288 kts | 68° |
| 2026-05-06 13:08 | 43.28547 | 15.83513 | 6165 ft | 289 kts | 69° |
| 2026-05-06 13:08 | 43.29311 | 15.86079 | 6096 ft | 290 kts | 69° |
| 2026-05-06 13:09 | 43.30069 | 15.88635 | 6030 ft | 287 kts | 69° |
| 2026-05-06 13:09 | 43.30834 | 15.91171 | 5960 ft | 289 kts | 67° |
| 2026-05-06 13:09 | 43.31950 | 15.93500 | 5738 ft | 294 kts | 50° |
| 2026-05-06 13:09 | 43.33373 | 15.95495 | 5411 ft | 290 kts | 47° |
| 2026-05-06 13:10 | 43.34789 | 15.97461 | 5095 ft | 288 kts | 48° |
| 2026-05-06 13:10 | 43.36182 | 15.99404 | 4778 ft | 283 kts | 47° |
| 2026-05-06 13:10 | 43.37550 | 16.01318 | 4436 ft | 278 kts | 50° |
| 2026-05-06 13:10 | 43.38892 | 16.03199 | 4104 ft | 270 kts | 51° |
| 2026-05-06 13:11 | 43.40172 | 16.04987 | 3830 ft | 254 kts | 52° |
| 2026-05-06 13:11 | 43.41301 | 16.06757 | 3562 ft | 241 kts | 58° |
| 2026-05-06 13:11 | 43.42242 | 16.08622 | 3293 ft | 234 kts | 65° |
| 2026-05-06 13:11 | 43.43119 | 16.10454 | 3022 ft | 229 kts | 61° |
| 2026-05-06 13:12 | 43.44051 | 16.12167 | 2830 ft | 216 kts | 59° |
| 2026-05-06 13:12 | 43.44934 | 16.13741 | 2701 ft | 201 kts | 60° |
| 2026-05-06 13:12 | 43.45764 | 16.15222 | 2484 ft | 188 kts | 59° |
| 2026-05-06 13:12 | 43.46561 | 16.16649 | 2239 ft | 182 kts | 62° |
| 2026-05-06 13:13 | 43.47298 | 16.17962 | 2013 ft | 170 kts | 65° |
| 2026-05-06 13:13 | 43.47993 | 16.19202 | 1801 ft | 157 kts | 66° |
| 2026-05-06 13:13 | 43.48645 | 16.20370 | 1588 ft | 149 kts | 66° |
| 2026-05-06 13:13 | 43.49246 | 16.21443 | 1379 ft | 140 kts | 61° |
| 2026-05-06 13:14 | 43.49832 | 16.22498 | 1200 ft | 138 kts | 58° |
| 2026-05-06 13:14 | 43.50423 | 16.23556 | 972 ft | 140 kts | 57° |
| 2026-05-06 13:14 | 43.50994 | 16.24575 | 815 ft | 130 kts | 57° |
| 2026-05-06 13:14 | 43.51555 | 16.25573 | 668 ft | 133 kts | 58° |
| 2026-05-06 13:15 | 43.52121 | 16.26596 | 485 ft | 137 kts | 58° |
| 2026-05-06 13:15 | 43.52716 | 16.27648 | 292 ft | 141 kts | 60° |
| 2026-05-06 13:15 | 43.53302 | 16.28723 | 96 ft | 140 kts | 58° |
| 2026-05-06 13:15 | 43.53822 | 16.29666 | 70 ft | 100 kts | 52° |
| 2026-05-06 13:16 | 43.54093 | 16.30158 | 59 ft | 48 kts | 52° |
| 2026-05-06 13:16 | 43.54281 | 16.30495 | 54 ft | 41 kts | 52° |
| 2026-05-06 13:16 | 43.54447 | 16.30795 | 51 ft | 37 kts | 53° |
| 2026-05-06 13:16 | 43.54546 | 16.31001 | 52 ft | 17 kts | 81° |
| 2026-05-06 13:17 | 43.54579 | 16.31031 | 53 ft | 4 kts | 277° |
| 2026-05-06 13:17 | 43.54521 | 16.30925 | 51 ft | 30 kts | 233° |
| 2026-05-06 13:17 | 43.54372 | 16.30649 | 53 ft | 37 kts | 231° |
| 2026-05-06 13:17 | 43.54215 | 16.30376 | 54 ft | 36 kts | 233° |
| 2026-05-06 13:18 | 43.54095 | 16.30159 | 59 ft | 18 kts | 232° |
| 2026-05-06 13:18 | 43.53985 | 16.30091 | 62 ft | 18 kts | 196° |
| 2026-05-06 13:18 | 43.53897 | 16.30043 | 60 ft | 11 kts | 222° |
| 2026-05-06 13:18 | 43.53852 | 16.29963 | 65 ft | 10 kts | 234° |
| 2026-05-06 13:19 | 43.53813 | 16.29890 | 66 ft | 9 kts | 232° |
| 2026-05-06 13:19 | 43.53777 | 16.29826 | 58 ft | 8 kts | 232° |
| 2026-05-06 13:19 | 43.53745 | 16.29768 | 63 ft | 7 kts | 233° |
| 2026-05-06 13:19 | 43.53722 | 16.29737 | 68 ft | 2 kts | 194° |
| 2026-05-06 13:20 | 43.53711 | 16.29758 | 64 ft | 5 kts | 104° |
| 2026-05-06 13:20 | 43.53698 | 16.29801 | 63 ft | 2 kts | 115° |
| 2026-05-06 13:20 | 43.53695 | 16.29809 | 65 ft | 0 kts | 115° |